sensor_id;sensor_type;location;lat;lon;timestamp;pressure;altitude;pressure_sealevel;temperature;humidity
50394;BME280;36308;46.312;25.288;2023-02-01T00:01:51;95855.31;;;0.44;67.54
50394;BME280;36308;46.312;25.288;2023-02-01T00:04:16;95850.03;;;0.44;68.14
50394;BME280;36308;46.312;25.288;2023-02-01T00:06:42;95837.81;;;0.43;68.21
50394;BME280;36308;46.312;25.288;2023-02-01T00:09:07;95831.06;;;0.33;67.58
50394;BME280;36308;46.312;25.288;2023-02-01T00:11:33;95849.41;;;0.42;67.36
50394;BME280;36308;46.312;25.288;2023-02-01T00:13:59;95852.06;;;0.42;68.11
50394;BME280;36308;46.312;25.288;2023-02-01T00:16:27;95844.31;;;0.40;68.08
50394;BME280;36308;46.312;25.288;2023-02-01T00:19:01;95849.41;;;0.42;67.47
50394;BME280;36308;46.312;25.288;2023-02-01T00:21:28;95845.13;;;0.40;68.14
50394;BME280;36308;46.312;25.288;2023-02-01T00:23:54;95845.13;;;0.40;67.63
50394;BME280;36308;46.312;25.288;2023-02-01T00:26:25;95848.78;;;0.39;67.83
50394;BME280;36308;46.312;25.288;2023-02-01T00:28:51;95839.22;;;0.38;67.55
50394;BME280;36308;46.312;25.288;2023-02-01T00:31:16;95841.88;;;0.38;67.91
50394;BME280;36308;46.312;25.288;2023-02-01T00:33:42;95841.88;;;0.38;67.65
50394;BME280;36308;46.312;25.288;2023-02-01T00:36:08;95833.72;;;0.33;67.75
50394;BME280;36308;46.312;25.288;2023-02-01T00:38:37;95846.72;;;0.35;67.56
50394;BME280;36308;46.312;25.288;2023-02-01T00:41:05;95850.41;;;0.34;67.75
50394;BME280;36308;46.312;25.288;2023-02-01T00:43:31;95844.31;;;0.33;67.52
50394;BME280;36308;46.312;25.288;2023-02-01T00:45:57;95840.00;;;0.32;67.45
50394;BME280;36308;46.312;25.288;2023-02-01T00:48:23;95833.72;;;0.33;67.68
50394;BME280;36308;46.312;25.288;2023-02-01T00:50:49;95822.69;;;0.23;68.17
50394;BME280;36308;46.312;25.288;2023-02-01T00:53:14;95833.09;;;0.31;68.35
50394;BME280;36308;46.312;25.288;2023-02-01T00:55:40;95834.91;;;0.31;68.25
50394;BME280;36308;46.312;25.288;2023-02-01T00:58:05;95828.00;;;0.23;68.05
50394;BME280;36308;46.312;25.288;2023-02-01T01:00:34;95830.03;;;0.28;68.03
50394;BME280;36308;46.312;25.288;2023-02-01T01:03:00;95836.56;;;0.32;68.54
50394;BME280;36308;46.312;25.288;2023-02-01T01:05:25;95831.28;;;0.32;68.48
50394;BME280;36308;46.312;25.288;2023-02-01T01:07:53;95824.34;;;0.31;68.32
50394;BME280;36308;46.312;25.288;2023-02-01T01:10:18;95822.28;;;0.26;68.40
50394;BME280;36308;46.312;25.288;2023-02-01T01:12:44;95828.19;;;0.28;68.69
50394;BME280;36308;46.312;25.288;2023-02-01T01:15:10;95822.69;;;0.23;68.52
50394;BME280;36308;46.312;25.288;2023-02-01T01:17:35;95830.47;;;0.31;68.78
50394;BME280;36308;46.312;25.288;2023-02-01T01:20:02;95828.19;;;0.28;68.52
50394;BME280;36308;46.312;25.288;2023-02-01T01:22:27;95832.06;;;0.32;68.32
50394;BME280;36308;46.312;25.288;2023-02-01T01:24:53;95821.50;;;0.32;68.53
50394;BME280;36308;46.312;25.288;2023-02-01T01:27:18;95813.34;;;0.27;68.36
50394;BME280;36308;46.312;25.288;2023-02-01T01:29:49;95814.97;;;0.28;68.79
50394;BME280;36308;46.312;25.288;2023-02-01T01:32:14;95816.63;;;0.29;68.30
50394;BME280;36308;46.312;25.288;2023-02-01T01:34:40;95811.72;;;0.26;68.46
50394;BME280;36308;46.312;25.288;2023-02-01T01:37:05;95820.25;;;0.28;68.35
50394;BME280;36308;46.312;25.288;2023-02-01T01:39:31;95817.63;;;0.28;68.80
50394;BME280;36308;46.312;25.288;2023-02-01T01:41:56;95815.78;;;0.29;69.22
50394;BME280;36308;46.312;25.288;2023-02-01T01:45:01;95814.97;;;0.28;69.45
50394;BME280;36308;46.312;25.288;2023-02-01T01:47:35;95814.97;;;0.28;69.14
50394;BME280;36308;46.312;25.288;2023-02-01T01:50:04;95808.06;;;0.27;68.69
50394;BME280;36308;46.312;25.288;2023-02-01T01:52:32;95810.09;;;0.25;68.99
50394;BME280;36308;46.312;25.288;2023-02-01T01:54:58;95813.34;;;0.27;69.32
50394;BME280;36308;46.312;25.288;2023-02-01T01:57:27;95805.44;;;0.27;69.33
50394;BME280;36308;46.312;25.288;2023-02-01T02:00:15;95817.00;;;0.26;69.39
50394;BME280;36308;46.312;25.288;2023-02-01T02:02:44;95813.34;;;0.27;69.21
50394;BME280;36308;46.312;25.288;2023-02-01T02:05:12;95801.13;;;0.26;69.03
50394;BME280;36308;46.312;25.288;2023-02-01T02:07:41;95802.78;;;0.27;68.80
50394;BME280;36308;46.312;25.288;2023-02-01T02:10:10;95803.16;;;0.24;69.45
50394;BME280;36308;46.312;25.288;2023-02-01T02:12:41;95799.31;;;0.27;69.23
50394;BME280;36308;46.312;25.288;2023-02-01T02:15:12;95804.41;;;0.28;69.45
50394;BME280;36308;46.312;25.288;2023-02-01T02:26:00;95790.38;;;0.28;69.25
50394;BME280;36308;46.312;25.288;2023-02-01T02:44:51;95782.00;;;0.24;69.06
50394;BME280;36308;46.312;25.288;2023-02-01T02:48:02;95779.38;;;0.24;68.97
50394;BME280;36308;46.312;25.288;2023-02-01T02:50:44;95765.72;;;0.14;69.42
50394;BME280;36308;46.312;25.288;2023-02-01T02:53:48;95778.94;;;0.20;69.87
50394;BME280;36308;46.312;25.288;2023-02-01T02:56:36;95788.50;;;0.22;69.43
50394;BME280;36308;46.312;25.288;2023-02-01T02:59:23;95782.19;;;0.23;69.56
50394;BME280;36308;46.312;25.288;2023-02-01T03:02:09;95793.00;;;0.21;70.02
50394;BME280;36308;46.312;25.288;2023-02-01T03:04:54;95794.63;;;0.22;69.43
50394;BME280;36308;46.312;25.288;2023-02-01T03:12:40;95786.06;;;0.20;69.67
50394;BME280;36308;46.312;25.288;2023-02-01T03:18:58;95782.81;;;0.18;69.44
50394;BME280;36308;46.312;25.288;2023-02-01T03:24:18;95794.63;;;0.22;70.01
50394;BME280;36308;46.312;25.288;2023-02-01T03:26:53;95782.81;;;0.18;69.66
50394;BME280;36308;46.312;25.288;2023-02-01T03:29:36;95793.00;;;0.21;70.06
50394;BME280;36308;46.312;25.288;2023-02-01T03:32:03;95791.16;;;0.22;69.31
50394;BME280;36308;46.312;25.288;2023-02-01T03:34:29;95787.09;;;0.19;70.09
50394;BME280;36308;46.312;25.288;2023-02-01T03:36:59;95787.72;;;0.21;69.33
50394;BME280;36308;46.312;25.288;2023-02-01T03:39:33;95790.34;;;0.21;70.26
50394;BME280;36308;46.312;25.288;2023-02-01T03:42:14;95780.78;;;0.20;70.35
50394;BME280;36308;46.312;25.288;2023-02-01T03:44:49;95776.53;;;0.19;70.14
50394;BME280;36308;46.312;25.288;2023-02-01T03:47:19;95778.53;;;0.17;70.05
50394;BME280;36308;46.312;25.288;2023-02-01T03:49:50;95775.66;;;0.12;69.63
50394;BME280;36308;46.312;25.288;2023-02-01T03:52:30;95768.97;;;0.16;69.85
50394;BME280;36308;46.312;25.288;2023-02-01T03:54:59;95783.59;;;0.18;69.76
50394;BME280;36308;46.312;25.288;2023-02-01T03:57:39;95764.50;;;0.16;69.61
50394;BME280;36308;46.312;25.288;2023-02-01T04:00:10;95761.66;;;0.18;69.99
50394;BME280;36308;46.312;25.288;2023-02-01T04:02:39;95762.47;;;0.18;70.00
50394;BME280;36308;46.312;25.288;2023-02-01T04:05:05;95755.56;;;0.17;69.82
50394;BME280;36308;46.312;25.288;2023-02-01T04:07:31;95752.09;;;0.17;70.08
50394;BME280;36308;46.312;25.288;2023-02-01T04:09:57;95758.00;;;0.19;70.35
50394;BME280;36308;46.312;25.288;2023-02-01T04:12:22;95754.53;;;0.18;70.21
50394;BME280;36308;46.312;25.288;2023-02-01T04:14:48;95746.41;;;0.20;69.79
50394;BME280;36308;46.312;25.288;2023-02-01T04:17:13;95750.28;;;0.17;70.55
50394;BME280;36308;46.312;25.288;2023-02-01T04:19:39;95757.59;;;0.22;70.35
50394;BME280;36308;46.312;25.288;2023-02-01T04:22:04;95746.81;;;0.17;70.00
50394;BME280;36308;46.312;25.288;2023-02-01T04:24:29;95744.97;;;0.17;70.16
50394;BME280;36308;46.312;25.288;2023-02-01T04:26:55;95742.75;;;0.21;70.42
50394;BME280;36308;46.312;25.288;2023-02-01T04:29:20;95749.06;;;0.20;70.37
50394;BME280;36308;46.312;25.288;2023-02-01T04:31:46;95739.88;;;0.16;70.26
50394;BME280;36308;46.312;25.288;2023-02-01T04:34:11;95743.75;;;0.20;70.31
50394;BME280;36308;46.312;25.288;2023-02-01T04:36:37;95736.88;;;0.19;69.85
50394;BME280;36308;46.312;25.288;2023-02-01T04:39:02;95746.81;;;0.17;70.10
50394;BME280;36308;46.312;25.288;2023-02-01T04:41:28;95749.06;;;0.20;70.61
50394;BME280;36308;46.312;25.288;2023-02-01T04:43:55;95742.34;;;0.17;70.71
50394;BME280;36308;46.312;25.288;2023-02-01T04:46:20;95719.34;;;0.05;70.45
50394;BME280;36308;46.312;25.288;2023-02-01T04:48:46;95734.22;;;0.19;70.51
50394;BME280;36308;46.312;25.288;2023-02-01T04:51:12;95735.84;;;0.20;70.53
50394;BME280;36308;46.312;25.288;2023-02-01T04:53:37;95750.69;;;0.21;70.01
50394;BME280;36308;46.312;25.288;2023-02-01T04:56:03;95738.88;;;0.17;70.51
50394;BME280;36308;46.312;25.288;2023-02-01T04:58:29;95749.84;;;0.20;70.49
50394;BME280;36308;46.312;25.288;2023-02-01T05:00:55;95740.50;;;0.18;70.67
50394;BME280;36308;46.312;25.288;2023-02-01T05:03:20;95758.63;;;0.21;70.72
50394;BME280;36308;46.312;25.288;2023-02-01T05:05:48;95758.00;;;0.19;70.10
50394;BME280;36308;46.312;25.288;2023-02-01T05:08:14;95756.38;;;0.18;70.74
50394;BME280;36308;46.312;25.288;2023-02-01T05:10:40;95765.31;;;0.17;70.09
50394;BME280;36308;46.312;25.288;2023-02-01T05:13:05;95768.97;;;0.16;70.03
50394;BME280;36308;46.312;25.288;2023-02-01T05:15:50;95768.59;;;0.19;70.31
50394;BME280;36308;46.312;25.288;2023-02-01T05:18:16;95754.75;;;0.17;70.91
50394;BME280;36308;46.312;25.288;2023-02-01T05:20:42;95765.31;;;0.17;70.28
50394;BME280;36308;46.312;25.288;2023-02-01T05:23:07;95762.88;;;0.15;69.85
50394;BME280;36308;46.312;25.288;2023-02-01T05:25:33;95758.56;;;0.08;69.99
50394;BME280;36308;46.312;25.288;2023-02-01T05:27:58;95774.66;;;0.13;70.35
50394;BME280;36308;46.312;25.288;2023-02-01T05:30:24;95766.94;;;0.11;70.40
50394;BME280;36308;46.312;25.288;2023-02-01T05:32:52;95767.13;;;0.10;69.79
50394;BME280;36308;46.312;25.288;2023-02-01T05:35:19;95744.09;;;-0.03;70.24
50394;BME280;36308;46.312;25.288;2023-02-01T05:37:44;95766.50;;;0.08;70.14
50394;BME280;36308;46.312;25.288;2023-02-01T05:40:10;95745.94;;;-0.04;69.91
50394;BME280;36308;46.312;25.288;2023-02-01T05:42:36;95759.97;;;0.04;70.15
50394;BME280;36308;46.312;25.288;2023-02-01T05:45:02;95773.19;;;0.04;69.75
50394;BME280;36308;46.312;25.288;2023-02-01T05:47:30;95774.22;;;0.03;70.19
50394;BME280;36308;46.312;25.288;2023-02-01T05:49:56;95765.25;;;-0.03;69.57
50394;BME280;36308;46.312;25.288;2023-02-01T05:52:22;95781.72;;;-0.01;69.93
50394;BME280;36308;46.312;25.288;2023-02-01T05:54:48;95787.19;;;-0.03;69.56
50394;BME280;36308;46.312;25.288;2023-02-01T05:57:14;95786.19;;;-0.08;69.93
50394;BME280;36308;46.312;25.288;2023-02-01T05:59:39;95799.78;;;-0.05;70.10
50394;BME280;36308;46.312;25.288;2023-02-01T06:02:10;95798.19;;;-0.06;70.23
50394;BME280;36308;46.312;25.288;2023-02-01T06:04:36;95798.19;;;-0.06;70.10
50394;BME280;36308;46.312;25.288;2023-02-01T06:07:02;95780.69;;;-0.07;70.11
50394;BME280;36308;46.312;25.288;2023-02-01T06:09:28;95766.63;;;-0.14;70.15
50394;BME280;36308;46.312;25.288;2023-02-01T06:11:54;95769.09;;;-0.06;70.43
50394;BME280;36308;46.312;25.288;2023-02-01T06:14:20;95777.22;;;-0.07;70.31
50394;BME280;36308;46.312;25.288;2023-02-01T06:16:45;95776.63;;;-0.03;69.81
50394;BME280;36308;46.312;25.288;2023-02-01T06:19:12;95776.63;;;-0.03;70.47
50394;BME280;36308;46.312;25.288;2023-02-01T06:21:38;95783.56;;;-0.02;70.06
50394;BME280;36308;46.312;25.288;2023-02-01T06:24:04;95790.47;;;-0.01;70.21
50394;BME280;36308;46.312;25.288;2023-02-01T06:26:29;95776.00;;;-0.05;70.35
50394;BME280;36308;46.312;25.288;2023-02-01T06:28:55;95777.25;;;-0.01;70.00
50394;BME280;36308;46.312;25.288;2023-02-01T06:31:22;95788.44;;;0.02;70.33
50394;BME280;36308;46.312;25.288;2023-02-01T06:33:48;95785.19;;;-0.01;70.36
50394;BME280;36308;46.312;25.288;2023-02-01T06:36:14;95782.53;;;-0.01;69.85
50394;BME280;36308;46.312;25.288;2023-02-01T06:38:41;95775.44;;;0.00;70.34
50394;BME280;36308;46.312;25.288;2023-02-01T06:41:06;95775.84;;;0.04;69.89
50394;BME280;36308;46.312;25.288;2023-02-01T06:43:32;95791.31;;;0.07;70.00
50394;BME280;36308;46.312;25.288;2023-02-01T06:46:03;95792.94;;;0.08;70.38
50394;BME280;36308;46.312;25.288;2023-02-01T06:48:30;95784.81;;;0.09;70.56
50394;BME280;36308;46.312;25.288;2023-02-01T06:50:56;95786.66;;;0.09;70.30
50394;BME280;36308;46.312;25.288;2023-02-01T06:53:22;95784.00;;;0.09;70.39
50394;BME280;36308;46.312;25.288;2023-02-01T06:56:08;95781.38;;;0.09;70.46
50394;BME280;36308;46.312;25.288;2023-02-01T06:58:34;95779.72;;;0.08;69.83
50394;BME280;36308;46.312;25.288;2023-02-01T07:01:07;95773.44;;;0.09;70.10
50394;BME280;36308;46.312;25.288;2023-02-01T07:03:34;95789.69;;;0.12;69.76
50394;BME280;36308;46.312;25.288;2023-02-01T07:05:59;95788.06;;;0.11;70.47
50394;BME280;36308;46.312;25.288;2023-02-01T07:08:29;95784.63;;;0.11;70.12
50394;BME280;36308;46.312;25.288;2023-02-01T07:10:55;95784.22;;;0.14;70.08
50394;BME280;36308;46.312;25.288;2023-02-01T07:13:21;95776.28;;;0.14;70.33
50394;BME280;36308;46.312;25.288;2023-02-01T07:15:46;95778.53;;;0.17;70.36
50394;BME280;36308;46.312;25.288;2023-02-01T07:18:13;95788.91;;;0.18;69.68
50394;BME280;36308;46.312;25.288;2023-02-01T07:20:39;95799.28;;;0.20;69.83
50394;BME280;36308;46.312;25.288;2023-02-01T07:23:05;95776.69;;;0.11;70.24
50394;BME280;36308;46.312;25.288;2023-02-01T07:25:31;95796.03;;;0.25;69.97
50394;BME280;36308;46.312;25.288;2023-02-01T07:27:57;95792.22;;;0.27;70.83
50394;BME280;36308;46.312;25.288;2023-02-01T07:30:23;95798.72;;;0.31;70.52
50394;BME280;36308;46.312;25.288;2023-02-01T07:32:48;95796.66;;;0.27;70.67
50394;BME280;36308;46.312;25.288;2023-02-01T07:35:14;95800.16;;;0.34;70.09
50394;BME280;36308;46.312;25.288;2023-02-01T07:37:40;95802.00;;;0.40;70.13
50394;BME280;36308;46.312;25.288;2023-02-01T07:40:06;95800.59;;;0.44;70.20
50394;BME280;36308;46.312;25.288;2023-02-01T07:42:33;95799.97;;;0.49;70.84
50394;BME280;36308;46.312;25.288;2023-02-01T07:44:58;95801.22;;;0.53;70.95
50394;BME280;36308;46.312;25.288;2023-02-01T07:47:24;95808.16;;;0.60;70.83
50394;BME280;36308;46.312;25.288;2023-02-01T07:49:49;95798.81;;;0.65;70.69
50394;BME280;36308;46.312;25.288;2023-02-01T07:52:15;95802.44;;;0.70;70.67
50394;BME280;36308;46.312;25.288;2023-02-01T07:54:43;95803.06;;;0.72;70.15
50394;BME280;36308;46.312;25.288;2023-02-01T07:57:09;95801.66;;;0.76;70.20
50394;BME280;36308;46.312;25.288;2023-02-01T07:59:36;95802.69;;;0.82;70.28
50394;BME280;36308;46.312;25.288;2023-02-01T08:02:22;95813.69;;;0.86;70.58
50394;BME280;36308;46.312;25.288;2023-02-01T08:04:47;95808.19;;;0.87;69.94
50394;BME280;36308;46.312;25.288;2023-02-01T08:09:57;95803.53;;;0.96;69.96
50394;BME280;36308;46.312;25.288;2023-02-01T08:12:22;95795.34;;;0.97;70.68
50394;BME280;36308;46.312;25.288;2023-02-01T08:14:53;95782.94;;;0.91;70.10
50394;BME280;36308;46.312;25.288;2023-02-01T08:17:26;95799.03;;;1.03;70.68
50394;BME280;36308;46.312;25.288;2023-02-01T08:19:53;95795.97;;;0.99;70.58
50394;BME280;36308;46.312;25.288;2023-02-01T08:22:19;95792.94;;;1.03;70.35
50394;BME280;36308;46.312;25.288;2023-02-01T08:24:47;95789.47;;;1.02;69.69
50394;BME280;36308;46.312;25.288;2023-02-01T08:27:13;95786.22;;;1.00;70.22
50394;BME280;36308;46.312;25.288;2023-02-01T08:29:39;95791.91;;;1.04;70.68
50394;BME280;36308;46.312;25.288;2023-02-01T08:32:04;95785.38;;;0.99;70.29
50394;BME280;36308;46.312;25.288;2023-02-01T08:34:30;95790.28;;;1.03;71.07
50394;BME280;36308;46.312;25.288;2023-02-01T08:36:56;95774.78;;;0.93;70.67
50394;BME280;36308;46.312;25.288;2023-02-01T08:42:10;95787.00;;;1.07;70.67
50394;BME280;36308;46.312;25.288;2023-02-01T08:44:54;95784.97;;;1.09;71.16
50394;BME280;36308;46.312;25.288;2023-02-01T08:47:20;95787.63;;;1.09;70.44
50394;BME280;36308;46.312;25.288;2023-02-01T08:49:45;95789.88;;;1.12;70.73
50394;BME280;36308;46.312;25.288;2023-02-01T08:52:11;95788.22;;;1.18;71.22
50394;BME280;36308;46.312;25.288;2023-02-01T08:54:37;95793.94;;;1.21;71.51
50394;BME280;36308;46.312;25.288;2023-02-01T08:57:04;95799.44;;;1.27;71.20
50394;BME280;36308;46.312;25.288;2023-02-01T08:59:30;95788.25;;;1.31;71.21
50394;BME280;36308;46.312;25.288;2023-02-01T09:01:55;95783.34;;;1.28;70.91
50394;BME280;36308;46.312;25.288;2023-02-01T09:04:21;95780.50;;;1.30;71.20
50394;BME280;36308;46.312;25.288;2023-02-01T09:06:46;95795.75;;;1.41;71.14
50394;BME280;36308;46.312;25.288;2023-02-01T09:09:12;95795.53;;;1.42;70.96
50394;BME280;36308;46.312;25.288;2023-02-01T09:11:37;95790.06;;;1.44;71.23
50394;BME280;36308;46.312;25.288;2023-02-01T09:14:03;95790.06;;;1.44;70.87
50394;BME280;36308;46.312;25.288;2023-02-01T09:16:28;95789.00;;;1.45;70.71
50394;BME280;36308;46.312;25.288;2023-02-01T09:18:54;95785.56;;;1.45;71.26
50394;BME280;36308;46.312;25.288;2023-02-01T09:21:20;95767.44;;;1.35;70.94
50394;BME280;36308;46.312;25.288;2023-02-01T09:23:45;95780.47;;;1.43;70.75
50394;BME280;36308;46.312;25.288;2023-02-01T09:26:14;95774.97;;;1.45;71.04
50394;BME280;36308;46.312;25.288;2023-02-01T09:28:39;95778.41;;;1.45;70.69
50394;BME280;36308;46.312;25.288;2023-02-01T09:31:05;95774.56;;;1.48;71.42
50394;BME280;36308;46.312;25.288;2023-02-01T09:33:30;95777.22;;;1.48;70.80
50394;BME280;36308;46.312;25.288;2023-02-01T09:36:01;95777.41;;;1.46;71.01
50394;BME280;36308;46.312;25.288;2023-02-01T09:38:27;95767.00;;;1.45;71.03
50394;BME280;36308;46.312;25.288;2023-02-01T09:40:54;95764.56;;;1.43;71.14
50394;BME280;36308;46.312;25.288;2023-02-01T09:43:34;95768.66;;;1.46;71.45
50394;BME280;36308;46.312;25.288;2023-02-01T09:48:53;95773.53;;;1.42;71.32
50394;BME280;36308;46.312;25.288;2023-02-01T09:51:23;95762.13;;;1.35;71.21
50394;BME280;36308;46.312;25.288;2023-02-01T09:54:04;95774.56;;;1.41;71.03
50394;BME280;36308;46.312;25.288;2023-02-01T10:01:57;95743.38;;;1.36;71.43
50394;BME280;36308;46.312;25.288;2023-02-01T10:04:25;95753.59;;;1.39;71.22
50394;BME280;36308;46.312;25.288;2023-02-01T10:20:30;95754.81;;;1.30;70.52
50394;BME280;36308;46.312;25.288;2023-02-01T10:23:28;95749.94;;;1.27;71.23
50394;BME280;36308;46.312;25.288;2023-02-01T10:26:20;95729.38;;;1.09;70.71
50394;BME280;36308;46.312;25.288;2023-02-01T10:29:10;95748.91;;;1.21;70.80
50394;BME280;36308;46.312;25.288;2023-02-01T10:31:38;95751.56;;;1.21;71.62
50394;BME280;36308;46.312;25.288;2023-02-01T10:36:53;95746.28;;;1.21;70.89
50394;BME280;36308;46.312;25.288;2023-02-01T10:39:20;95751.38;;;1.23;71.58
50394;BME280;36308;46.312;25.288;2023-02-01T10:41:47;95734.47;;;1.17;71.29
50394;BME280;36308;46.312;25.288;2023-02-01T10:44:19;95747.50;;;1.26;71.73
50394;BME280;36308;46.312;25.288;2023-02-01T10:46:48;95736.50;;;1.15;71.18
50394;BME280;36308;46.312;25.288;2023-02-01T10:49:28;95749.94;;;1.27;71.70
50394;BME280;36308;46.312;25.288;2023-02-01T10:52:05;95740.34;;;1.26;71.29
50394;BME280;36308;46.312;25.288;2023-02-01T10:54:37;95736.72;;;1.20;71.15
50394;BME280;36308;46.312;25.288;2023-02-01T10:57:10;95727.34;;;1.25;71.28
50394;BME280;36308;46.312;25.288;2023-02-01T10:59:36;95744.63;;;1.34;71.13
50394;BME280;36308;46.312;25.288;2023-02-01T11:02:32;95739.94;;;1.36;71.27
50394;BME280;36308;46.312;25.288;2023-02-01T11:05:09;95740.53;;;1.38;70.93
50394;BME280;36308;46.312;25.288;2023-02-01T11:07:38;95735.03;;;1.39;71.24
50394;BME280;36308;46.312;25.288;2023-02-01T11:10:05;95741.16;;;1.40;70.86
50394;BME280;36308;46.312;25.288;2023-02-01T11:12:33;95741.75;;;1.42;70.93
50394;BME280;36308;46.312;25.288;2023-02-01T11:17:40;95740.13;;;1.48;71.29
50394;BME280;36308;46.312;25.288;2023-02-01T11:22:59;95736.84;;;1.52;70.91
50394;BME280;36308;46.312;25.288;2023-02-01T11:25:25;95734.81;;;1.54;71.02
50394;BME280;36308;46.312;25.288;2023-02-01T11:27:53;95729.69;;;1.53;71.23
50394;BME280;36308;46.312;25.288;2023-02-01T11:30:34;95728.47;;;1.55;71.07
50394;BME280;36308;46.312;25.288;2023-02-01T11:33:03;95728.25;;;1.57;71.11
50394;BME280;36308;46.312;25.288;2023-02-01T11:35:30;95723.97;;;1.63;71.09
50394;BME280;36308;46.312;25.288;2023-02-01T11:37:58;95726.19;;;1.66;70.98
50394;BME280;36308;46.312;25.288;2023-02-01T11:40:37;95731.50;;;1.66;71.28
50394;BME280;36308;46.312;25.288;2023-02-01T11:46:01;95727.84;;;1.67;71.10
50394;BME280;36308;46.312;25.288;2023-02-01T11:48:29;95717.25;;;1.60;70.97
50394;BME280;36308;46.312;25.288;2023-02-01T11:58:50;95720.03;;;1.78;71.10
50394;BME280;36308;46.312;25.288;2023-02-01T12:06:57;95708.25;;;1.74;70.00
50394;BME280;36308;46.312;25.288;2023-02-01T12:21:13;95722.69;;;1.85;70.73
50394;BME280;36308;46.312;25.288;2023-02-01T12:36:55;95717.19;;;1.80;70.29
50394;BME280;36308;46.312;25.288;2023-02-01T12:39:52;95722.91;;;1.77;70.28
50394;BME280;36308;46.312;25.288;2023-02-01T12:45:10;95719.06;;;1.73;70.37
50394;BME280;36308;46.312;25.288;2023-02-01T12:47:49;95726.19;;;1.72;70.58
50394;BME280;36308;46.312;25.288;2023-02-01T12:50:24;95726.19;;;1.72;70.64
50394;BME280;36308;46.312;25.288;2023-02-01T12:52:54;95716.41;;;1.73;70.70
50394;BME280;36308;46.312;25.288;2023-02-01T12:55:33;95725.59;;;1.70;70.81
50394;BME280;36308;46.312;25.288;2023-02-01T13:01:05;95726.78;;;1.81;71.43
50394;BME280;36308;46.312;25.288;2023-02-01T13:03:41;95723.88;;;1.82;71.09
50394;BME280;36308;46.312;25.288;2023-02-01T13:06:23;95715.31;;;1.80;71.43
50394;BME280;36308;46.312;25.288;2023-02-01T13:11:39;95724.44;;;1.98;71.18
50394;BME280;36308;46.312;25.288;2023-02-01T13:16:41;95730.16;;;2.01;71.53
50394;BME280;36308;46.312;25.288;2023-02-01T13:21:49;95734.63;;;2.08;71.66
50394;BME280;36308;46.312;25.288;2023-02-01T13:24:42;95731.72;;;2.09;71.15
50394;BME280;36308;46.312;25.288;2023-02-01T13:27:14;95724.81;;;2.08;71.78
50394;BME280;36308;46.312;25.288;2023-02-01T13:30:19;95731.97;;;2.08;71.86
50394;BME280;36308;46.312;25.288;2023-02-01T13:43:05;95730.13;;;2.08;70.83
50394;BME280;36308;46.312;25.288;2023-02-01T13:45:35;95725.63;;;2.09;71.45
50394;BME280;36308;46.312;25.288;2023-02-01T13:48:04;95714.44;;;2.00;70.98
50394;BME280;36308;46.312;25.288;2023-02-01T13:50:36;95711.41;;;1.96;70.88
50394;BME280;36308;46.312;25.288;2023-02-01T13:55:38;95727.88;;;2.05;71.29
50394;BME280;36308;46.312;25.288;2023-02-01T13:58:15;95726.66;;;2.08;70.83
50394;BME280;36308;46.312;25.288;2023-02-01T14:00:43;95712.59;;;2.00;70.93
50394;BME280;36308;46.312;25.288;2023-02-01T14:03:21;95722.75;;;2.10;70.74
50394;BME280;36308;46.312;25.288;2023-02-01T14:08:16;95736.19;;;2.15;70.71
50394;BME280;36308;46.312;25.288;2023-02-01T14:10:55;95727.63;;;2.13;70.97
50394;BME280;36308;46.312;25.288;2023-02-01T14:13:40;95733.53;;;2.15;70.71
50394;BME280;36308;46.312;25.288;2023-02-01T14:23:56;95729.72;;;2.05;70.25
50394;BME280;36308;46.312;25.288;2023-02-01T14:29:10;95730.16;;;2.01;70.69
50394;BME280;36308;46.312;25.288;2023-02-01T14:37:00;95739.31;;;1.99;71.09
50394;BME280;36308;46.312;25.288;2023-02-01T14:41:56;95735.88;;;1.98;70.70
50394;BME280;36308;46.312;25.288;2023-02-01T14:44:28;95738.31;;;2.00;71.17
50394;BME280;36308;46.312;25.288;2023-02-01T14:52:39;95736.25;;;2.02;70.42
50394;BME280;36308;46.312;25.288;2023-02-01T14:55:40;95727.72;;;2.00;70.61
50394;BME280;36308;46.312;25.288;2023-02-01T15:00:53;95731.38;;;1.99;70.86
50394;BME280;36308;46.312;25.288;2023-02-01T15:04:24;95742.19;;;1.97;70.22
50394;BME280;36308;46.312;25.288;2023-02-01T15:06:29;95749.31;;;1.97;70.08
50394;BME280;36308;46.312;25.288;2023-02-01T15:09:07;95747.91;;;1.94;70.66
50394;BME280;36308;46.312;25.288;2023-02-01T15:14:26;95748.94;;;1.87;69.78
50394;BME280;36308;46.312;25.288;2023-02-01T15:16:51;95753.88;;;1.83;69.81
50394;BME280;36308;46.312;25.288;2023-02-01T15:19:25;95756.72;;;1.81;70.45
50394;BME280;36308;46.312;25.288;2023-02-01T15:21:54;95744.16;;;1.70;70.65
50394;BME280;36308;46.312;25.288;2023-02-01T15:24:24;95753.06;;;1.76;70.17
50394;BME280;36308;46.312;25.288;2023-02-01T15:26:54;95762.06;;;1.75;70.55
50394;BME280;36308;46.312;25.288;2023-02-01T15:29:21;95760.41;;;1.74;70.81
50394;BME280;36308;46.312;25.288;2023-02-01T15:31:50;95772.66;;;1.75;70.94
50394;BME280;36308;46.312;25.288;2023-02-01T15:34:17;95768.97;;;1.76;71.37
50394;BME280;36308;46.312;25.288;2023-02-01T15:36:44;95769.78;;;1.76;71.59
50394;BME280;36308;46.312;25.288;2023-02-01T15:39:22;95764.72;;;1.75;70.75
50394;BME280;36308;46.312;25.288;2023-02-01T15:41:54;95763.06;;;1.74;70.94
50394;BME280;36308;46.312;25.288;2023-02-01T15:44:30;95778.78;;;1.75;71.06
50394;BME280;36308;46.312;25.288;2023-02-01T15:46:57;95768.19;;;1.69;70.92
50394;BME280;36308;46.312;25.288;2023-02-01T15:49:28;95775.09;;;1.70;71.21
50394;BME280;36308;46.312;25.288;2023-02-01T15:51:55;95761.72;;;1.58;70.93
50394;BME280;36308;46.312;25.288;2023-02-01T15:54:43;95773.28;;;1.64;71.77
50394;BME280;36308;46.312;25.288;2023-02-01T15:57:40;95756.41;;;1.58;71.40
50394;BME280;36308;46.312;25.288;2023-02-01T16:00:17;95765.34;;;1.64;71.95
50394;BME280;36308;46.312;25.288;2023-02-01T16:05:32;95767.78;;;1.65;71.10
50394;BME280;36308;46.312;25.288;2023-02-01T16:08:21;95764.34;;;1.65;71.69
50394;BME280;36308;46.312;25.288;2023-02-01T16:10:49;95771.25;;;1.66;72.14